sensor_id;sensor_type;location;lat;lon;timestamp;P1;durP1;ratioP1;P2;durP2;ratioP2
78581;SDS011;67878;46.242;5.974;2023-09-12T00:00:05;5.03;;;4.60;;
78581;SDS011;67878;46.242;5.974;2023-09-12T00:02:31;5.60;;;4.32;;
78581;SDS011;67878;46.242;5.974;2023-09-12T00:04:56;5.05;;;4.55;;
78581;SDS011;67878;46.242;5.974;2023-09-12T00:07:22;4.97;;;4.47;;
78581;SDS011;67878;46.242;5.974;2023-09-12T00:09:47;4.50;;;4.18;;
78581;SDS011;67878;46.242;5.974;2023-09-12T00:12:16;5.88;;;4.70;;
78581;SDS011;67878;46.242;5.974;2023-09-12T00:14:41;4.68;;;4.28;;
78581;SDS011;67878;46.242;5.974;2023-09-12T00:17:07;5.13;;;4.63;;
78581;SDS011;67878;46.242;5.974;2023-09-12T00:19:33;5.38;;;4.88;;
78581;SDS011;67878;46.242;5.974;2023-09-12T00:21:58;5.50;;;5.00;;
78581;SDS011;67878;46.242;5.974;2023-09-12T00:24:24;5.30;;;4.28;;
78581;SDS011;67878;46.242;5.974;2023-09-12T00:26:49;5.03;;;4.60;;
78581;SDS011;67878;46.242;5.974;2023-09-12T00:29:15;5.53;;;4.65;;
78581;SDS011;67878;46.242;5.974;2023-09-12T00:31:40;5.40;;;4.68;;
78581;SDS011;67878;46.242;5.974;2023-09-12T00:34:05;5.00;;;4.50;;
78581;SDS011;67878;46.242;5.974;2023-09-12T00:36:31;5.40;;;4.90;;
78581;SDS011;67878;46.242;5.974;2023-09-12T00:38:58;5.25;;;4.72;;
78581;SDS011;67878;46.242;5.974;2023-09-12T00:41:23;5.60;;;4.35;;
78581;SDS011;67878;46.242;5.974;2023-09-12T00:43:48;5.35;;;4.75;;
78581;SDS011;67878;46.242;5.974;2023-09-12T00:46:14;5.47;;;4.97;;
78581;SDS011;67878;46.242;5.974;2023-09-12T00:48:44;5.43;;;4.53;;
78581;SDS011;67878;46.242;5.974;2023-09-12T00:51:11;5.45;;;4.95;;
78581;SDS011;67878;46.242;5.974;2023-09-12T00:53:39;5.50;;;5.00;;
78581;SDS011;67878;46.242;5.974;2023-09-12T00:56:04;5.00;;;4.50;;
78581;SDS011;67878;46.242;5.974;2023-09-12T00:58:31;5.13;;;4.63;;
78581;SDS011;67878;46.242;5.974;2023-09-12T01:00:57;5.60;;;5.00;;
78581;SDS011;67878;46.242;5.974;2023-09-12T01:03:23;5.63;;;4.95;;
78581;SDS011;67878;46.242;5.974;2023-09-12T01:05:49;5.20;;;4.75;;
78581;SDS011;67878;46.242;5.974;2023-09-12T01:08:16;5.20;;;4.70;;
78581;SDS011;67878;46.242;5.974;2023-09-12T01:10:42;5.40;;;4.90;;
78581;SDS011;67878;46.242;5.974;2023-09-12T01:13:11;4.90;;;4.40;;
78581;SDS011;67878;46.242;5.974;2023-09-12T01:15:38;5.00;;;4.60;;
78581;SDS011;67878;46.242;5.974;2023-09-12T01:18:06;5.38;;;4.88;;
78581;SDS011;67878;46.242;5.974;2023-09-12T01:20:32;5.50;;;5.00;;
78581;SDS011;67878;46.242;5.974;2023-09-12T01:28:34;5.43;;;4.93;;
78581;SDS011;67878;46.242;5.974;2023-09-12T01:31:00;5.32;;;4.82;;
78581;SDS011;67878;46.242;5.974;2023-09-12T01:33:28;5.53;;;5.03;;
78581;SDS011;67878;46.242;5.974;2023-09-12T01:35:54;5.18;;;4.68;;
78581;SDS011;67878;46.242;5.974;2023-09-12T01:38:19;4.90;;;4.43;;
78581;SDS011;67878;46.242;5.974;2023-09-12T01:40:47;5.90;;;5.30;;
78581;SDS011;67878;46.242;5.974;2023-09-12T01:43:15;5.07;;;4.57;;
78581;SDS011;67878;46.242;5.974;2023-09-12T01:45:42;5.25;;;4.75;;
78581;SDS011;67878;46.242;5.974;2023-09-12T01:48:09;5.00;;;4.60;;
78581;SDS011;67878;46.242;5.974;2023-09-12T01:50:36;5.60;;;5.10;;
78581;SDS011;67878;46.242;5.974;2023-09-12T01:53:02;5.53;;;5.03;;
78581;SDS011;67878;46.242;5.974;2023-09-12T01:55:28;5.07;;;4.45;;
78581;SDS011;67878;46.242;5.974;2023-09-12T01:57:54;5.22;;;4.72;;
78581;SDS011;67878;46.242;5.974;2023-09-12T02:00:22;5.30;;;4.80;;
78581;SDS011;67878;46.242;5.974;2023-09-12T02:02:48;5.50;;;5.00;;
78581;SDS011;67878;46.242;5.974;2023-09-12T02:05:15;5.63;;;5.13;;
78581;SDS011;67878;46.242;5.974;2023-09-12T02:07:44;5.30;;;4.80;;
78581;SDS011;67878;46.242;5.974;2023-09-12T02:10:11;5.68;;;5.07;;
78581;SDS011;67878;46.242;5.974;2023-09-12T02:12:36;4.90;;;4.50;;
78581;SDS011;67878;46.242;5.974;2023-09-12T02:15:02;5.50;;;4.93;;
78581;SDS011;67878;46.242;5.974;2023-09-12T02:17:28;5.15;;;4.65;;
78581;SDS011;67878;46.242;5.974;2023-09-12T02:19:53;5.50;;;4.82;;
78581;SDS011;67878;46.242;5.974;2023-09-12T02:22:19;5.28;;;4.78;;
78581;SDS011;67878;46.242;5.974;2023-09-12T02:24:44;5.32;;;4.82;;
78581;SDS011;67878;46.242;5.974;2023-09-12T02:27:10;5.65;;;5.18;;
78581;SDS011;67878;46.242;5.974;2023-09-12T02:29:35;5.47;;;4.97;;
78581;SDS011;67878;46.242;5.974;2023-09-12T02:32:02;5.60;;;5.10;;
78581;SDS011;67878;46.242;5.974;2023-09-12T02:34:28;6.03;;;4.88;;
78581;SDS011;67878;46.242;5.974;2023-09-12T02:36:53;5.35;;;4.95;;
78581;SDS011;67878;46.242;5.974;2023-09-12T02:39:18;5.60;;;5.10;;
78581;SDS011;67878;46.242;5.974;2023-09-12T02:41:44;5.43;;;4.93;;
78581;SDS011;67878;46.242;5.974;2023-09-12T02:44:09;8.00;;;5.15;;
78581;SDS011;67878;46.242;5.974;2023-09-12T02:46:36;5.25;;;4.75;;
78581;SDS011;67878;46.242;5.974;2023-09-12T02:49:02;5.63;;;5.13;;
78581;SDS011;67878;46.242;5.974;2023-09-12T02:51:27;5.22;;;4.72;;
78581;SDS011;67878;46.242;5.974;2023-09-12T02:53:53;5.72;;;5.20;;
78581;SDS011;67878;46.242;5.974;2023-09-12T02:56:18;5.55;;;5.05;;
78581;SDS011;67878;46.242;5.974;2023-09-12T02:58:47;5.10;;;4.60;;
78581;SDS011;67878;46.242;5.974;2023-09-12T03:01:16;5.85;;;5.25;;
78581;SDS011;67878;46.242;5.974;2023-09-12T03:03:42;5.65;;;5.15;;
78581;SDS011;67878;46.242;5.974;2023-09-12T03:06:11;5.55;;;5.05;;
78581;SDS011;67878;46.242;5.974;2023-09-12T03:08:37;5.55;;;5.05;;
78581;SDS011;67878;46.242;5.974;2023-09-12T03:11:03;6.47;;;4.93;;
78581;SDS011;67878;46.242;5.974;2023-09-12T03:13:28;5.60;;;5.05;;
78581;SDS011;67878;46.242;5.974;2023-09-12T03:15:54;5.18;;;4.68;;
78581;SDS011;67878;46.242;5.974;2023-09-12T03:18:19;5.25;;;4.75;;
78581;SDS011;67878;46.242;5.974;2023-09-12T03:20:45;5.32;;;4.82;;
78581;SDS011;67878;46.242;5.974;2023-09-12T03:23:10;5.60;;;5.10;;
78581;SDS011;67878;46.242;5.974;2023-09-12T03:25:39;5.53;;;5.03;;
78581;SDS011;67878;46.242;5.974;2023-09-12T03:28:05;5.20;;;4.70;;
78581;SDS011;67878;46.242;5.974;2023-09-12T03:30:34;5.97;;;5.38;;
78581;SDS011;67878;46.242;5.974;2023-09-12T03:33:01;5.72;;;5.22;;
78581;SDS011;67878;46.242;5.974;2023-09-12T03:35:27;5.70;;;5.20;;
78581;SDS011;67878;46.242;5.974;2023-09-12T03:37:54;5.47;;;4.97;;
78581;SDS011;67878;46.242;5.974;2023-09-12T03:40:19;5.40;;;4.90;;
78581;SDS011;67878;46.242;5.974;2023-09-12T03:42:45;5.32;;;4.82;;
78581;SDS011;67878;46.242;5.974;2023-09-12T03:45:10;5.70;;;5.20;;
78581;SDS011;67878;46.242;5.974;2023-09-12T03:47:36;5.38;;;4.88;;
78581;SDS011;67878;46.242;5.974;2023-09-12T03:50:02;6.03;;;5.53;;
78581;SDS011;67878;46.242;5.974;2023-09-12T03:52:27;5.53;;;4.85;;
78581;SDS011;67878;46.242;5.974;2023-09-12T03:54:53;6.53;;;5.40;;
78581;SDS011;67878;46.242;5.974;2023-09-12T03:57:18;5.43;;;4.93;;
78581;SDS011;67878;46.242;5.974;2023-09-12T03:59:44;5.03;;;4.63;;
78581;SDS011;67878;46.242;5.974;2023-09-12T04:02:11;5.97;;;5.38;;
78581;SDS011;67878;46.242;5.974;2023-09-12T04:04:37;5.07;;;4.68;;
78581;SDS011;67878;46.242;5.974;2023-09-12T04:07:03;5.75;;;5.18;;
78581;SDS011;67878;46.242;5.974;2023-09-12T04:09:28;5.57;;;5.07;;
78581;SDS011;67878;46.242;5.974;2023-09-12T04:11:54;5.78;;;5.28;;
78581;SDS011;67878;46.242;5.974;2023-09-12T04:14:20;5.68;;;5.18;;
78581;SDS011;67878;46.242;5.974;2023-09-12T04:16:46;5.55;;;5.05;;
78581;SDS011;67878;46.242;5.974;2023-09-12T04:19:13;5.50;;;4.88;;
78581;SDS011;67878;46.242;5.974;2023-09-12T04:21:39;6.13;;;5.53;;
78581;SDS011;67878;46.242;5.974;2023-09-12T04:24:04;6.03;;;5.50;;
78581;SDS011;67878;46.242;5.974;2023-09-12T04:26:30;5.70;;;5.05;;
78581;SDS011;67878;46.242;5.974;2023-09-12T04:28:56;5.93;;;5.18;;
78581;SDS011;67878;46.242;5.974;2023-09-12T04:31:21;5.65;;;5.00;;
78581;SDS011;67878;46.242;5.974;2023-09-12T04:33:47;5.88;;;5.38;;
78581;SDS011;67878;46.242;5.974;2023-09-12T04:36:12;5.50;;;5.00;;
78581;SDS011;67878;46.242;5.974;2023-09-12T04:38:37;5.10;;;4.70;;
78581;SDS011;67878;46.242;5.974;2023-09-12T04:41:03;5.95;;;4.95;;
78581;SDS011;67878;46.242;5.974;2023-09-12T04:43:31;6.00;;;5.40;;
78581;SDS011;67878;46.242;5.974;2023-09-12T04:45:56;6.72;;;5.68;;
78581;SDS011;67878;46.242;5.974;2023-09-12T04:48:22;4.88;;;4.47;;
78581;SDS011;67878;46.242;5.974;2023-09-12T04:50:48;5.72;;;5.20;;
78581;SDS011;67878;46.242;5.974;2023-09-12T04:53:13;5.80;;;5.20;;
78581;SDS011;67878;46.242;5.974;2023-09-12T04:55:39;5.95;;;5.45;;
78581;SDS011;67878;46.242;5.974;2023-09-12T04:58:04;6.22;;;5.63;;
78581;SDS011;67878;46.242;5.974;2023-09-12T05:00:31;6.43;;;5.78;;
78581;SDS011;67878;46.242;5.974;2023-09-12T05:02:57;6.00;;;5.43;;
78581;SDS011;67878;46.242;5.974;2023-09-12T05:05:23;5.90;;;5.40;;
78581;SDS011;67878;46.242;5.974;2023-09-12T05:07:48;6.43;;;5.60;;
78581;SDS011;67878;46.242;5.974;2023-09-12T05:10:13;6.15;;;5.53;;
78581;SDS011;67878;46.242;5.974;2023-09-12T05:12:39;5.93;;;5.43;;
78581;SDS011;67878;46.242;5.974;2023-09-12T05:15:04;5.80;;;5.30;;
78581;SDS011;67878;46.242;5.974;2023-09-12T05:17:30;5.47;;;4.97;;
78581;SDS011;67878;46.242;5.974;2023-09-12T05:19:56;6.25;;;5.65;;
78581;SDS011;67878;46.242;5.974;2023-09-12T05:22:21;5.85;;;5.35;;
78581;SDS011;67878;46.242;5.974;2023-09-12T05:24:47;6.22;;;5.70;;
78581;SDS011;67878;46.242;5.974;2023-09-12T05:27:13;5.43;;;4.93;;
78581;SDS011;67878;46.242;5.974;2023-09-12T05:29:38;5.70;;;5.20;;
78581;SDS011;67878;46.242;5.974;2023-09-12T05:32:04;5.82;;;5.00;;
78581;SDS011;67878;46.242;5.974;2023-09-12T05:34:30;6.28;;;5.68;;
78581;SDS011;67878;46.242;5.974;2023-09-12T05:36:56;5.65;;;5.15;;
78581;SDS011;67878;46.242;5.974;2023-09-12T05:39:21;5.93;;;5.32;;
78581;SDS011;67878;46.242;5.974;2023-09-12T05:41:47;5.88;;;4.90;;
78581;SDS011;67878;46.242;5.974;2023-09-12T05:44:13;5.70;;;5.20;;
78581;SDS011;67878;46.242;5.974;2023-09-12T05:46:42;7.90;;;5.07;;
78581;SDS011;67878;46.242;5.974;2023-09-12T05:49:09;6.00;;;5.40;;
78581;SDS011;67878;46.242;5.974;2023-09-12T05:51:35;6.03;;;5.43;;
78581;SDS011;67878;46.242;5.974;2023-09-12T05:54:00;5.90;;;5.40;;
78581;SDS011;67878;46.242;5.974;2023-09-12T05:56:47;5.65;;;5.05;;
78581;SDS011;67878;46.242;5.974;2023-09-12T05:59:14;5.88;;;5.38;;
78581;SDS011;67878;46.242;5.974;2023-09-12T06:01:40;6.35;;;5.50;;
78581;SDS011;67878;46.242;5.974;2023-09-12T06:04:05;6.30;;;5.70;;
78581;SDS011;67878;46.242;5.974;2023-09-12T06:06:31;6.18;;;5.57;;
78581;SDS011;67878;46.242;5.974;2023-09-12T06:08:56;6.15;;;5.15;;
78581;SDS011;67878;46.242;5.974;2023-09-12T06:11:24;7.05;;;5.28;;
78581;SDS011;67878;46.242;5.974;2023-09-12T06:13:54;5.95;;;5.43;;
78581;SDS011;67878;46.242;5.974;2023-09-12T06:16:21;5.63;;;5.03;;
78581;SDS011;67878;46.242;5.974;2023-09-12T06:18:46;7.30;;;5.38;;
78581;SDS011;67878;46.242;5.974;2023-09-12T06:21:13;5.72;;;4.70;;
78581;SDS011;67878;46.242;5.974;2023-09-12T06:23:39;5.68;;;5.15;;
78581;SDS011;67878;46.242;5.974;2023-09-12T06:26:04;5.88;;;5.32;;
78581;SDS011;67878;46.242;5.974;2023-09-12T06:28:30;7.10;;;5.57;;
78581;SDS011;67878;46.242;5.974;2023-09-12T06:30:57;7.65;;;6.15;;
78581;SDS011;67878;46.242;5.974;2023-09-12T06:33:24;6.22;;;5.63;;
78581;SDS011;67878;46.242;5.974;2023-09-12T06:35:50;6.30;;;5.70;;
78581;SDS011;67878;46.242;5.974;2023-09-12T06:38:18;6.05;;;5.05;;
78581;SDS011;67878;46.242;5.974;2023-09-12T06:40:44;6.30;;;5.70;;
78581;SDS011;67878;46.242;5.974;2023-09-12T06:43:09;8.52;;;6.05;;
78581;SDS011;67878;46.242;5.974;2023-09-12T06:45:35;9.32;;;6.20;;
78581;SDS011;67878;46.242;5.974;2023-09-12T06:48:02;6.53;;;5.88;;
78581;SDS011;67878;46.242;5.974;2023-09-12T06:50:28;7.03;;;5.93;;
78581;SDS011;67878;46.242;5.974;2023-09-12T06:52:54;7.25;;;5.40;;
78581;SDS011;67878;46.242;5.974;2023-09-12T06:55:19;5.90;;;5.28;;
78581;SDS011;67878;46.242;5.974;2023-09-12T06:57:45;6.80;;;5.22;;
78581;SDS011;67878;46.242;5.974;2023-09-12T07:00:11;6.32;;;5.55;;
78581;SDS011;67878;46.242;5.974;2023-09-12T07:02:37;6.38;;;5.75;;
78581;SDS011;67878;46.242;5.974;2023-09-12T07:05:03;6.45;;;5.80;;
78581;SDS011;67878;46.242;5.974;2023-09-12T07:07:29;6.20;;;5.60;;
78581;SDS011;67878;46.242;5.974;2023-09-12T07:09:58;6.50;;;5.90;;
78581;SDS011;67878;46.242;5.974;2023-09-12T07:12:24;5.88;;;5.38;;
78581;SDS011;67878;46.242;5.974;2023-09-12T07:14:51;6.35;;;5.75;;
78581;SDS011;67878;46.242;5.974;2023-09-12T07:17:16;7.07;;;5.75;;
78581;SDS011;67878;46.242;5.974;2023-09-12T07:19:42;5.93;;;5.43;;
78581;SDS011;67878;46.242;5.974;2023-09-12T07:22:08;5.78;;;5.18;;
78581;SDS011;67878;46.242;5.974;2023-09-12T07:24:33;6.18;;;5.32;;
78581;SDS011;67878;46.242;5.974;2023-09-12T07:26:59;6.43;;;5.75;;
78581;SDS011;67878;46.242;5.974;2023-09-12T07:29:24;6.00;;;5.40;;
78581;SDS011;67878;46.242;5.974;2023-09-12T07:31:53;6.28;;;5.78;;
78581;SDS011;67878;46.242;5.974;2023-09-12T07:34:20;6.97;;;6.28;;
78581;SDS011;67878;46.242;5.974;2023-09-12T07:36:50;5.85;;;5.35;;
78581;SDS011;67878;46.242;5.974;2023-09-12T07:39:19;6.03;;;5.43;;
78581;SDS011;67878;46.242;5.974;2023-09-12T07:41:45;5.93;;;5.32;;
78581;SDS011;67878;46.242;5.974;2023-09-12T07:44:10;5.70;;;5.20;;
78581;SDS011;67878;46.242;5.974;2023-09-12T07:46:40;6.47;;;5.88;;
78581;SDS011;67878;46.242;5.974;2023-09-12T07:49:06;7.18;;;5.65;;
78581;SDS011;67878;46.242;5.974;2023-09-12T07:51:33;5.78;;;5.28;;
78581;SDS011;67878;46.242;5.974;2023-09-12T07:53:58;5.45;;;4.95;;
78581;SDS011;67878;46.242;5.974;2023-09-12T07:56:24;5.78;;;5.22;;
78581;SDS011;67878;46.242;5.974;2023-09-12T07:58:49;6.68;;;5.35;;
78581;SDS011;67878;46.242;5.974;2023-09-12T08:01:15;6.00;;;5.40;;
78581;SDS011;67878;46.242;5.974;2023-09-12T08:03:41;5.60;;;5.00;;
78581;SDS011;67878;46.242;5.974;2023-09-12T08:06:08;6.13;;;5.15;;
78581;SDS011;67878;46.242;5.974;2023-09-12T08:08:34;6.57;;;5.47;;
78581;SDS011;67878;46.242;5.974;2023-09-12T08:11:00;5.90;;;4.90;;
78581;SDS011;67878;46.242;5.974;2023-09-12T08:13:26;6.15;;;4.82;;
78581;SDS011;67878;46.242;5.974;2023-09-12T08:15:55;5.53;;;5.03;;
78581;SDS011;67878;46.242;5.974;2023-09-12T08:18:21;5.68;;;5.18;;
78581;SDS011;67878;46.242;5.974;2023-09-12T08:20:47;6.40;;;5.47;;
78581;SDS011;67878;46.242;5.974;2023-09-12T08:23:12;6.97;;;5.65;;
78581;SDS011;67878;46.242;5.974;2023-09-12T08:25:39;5.90;;;5.40;;
78581;SDS011;67878;46.242;5.974;2023-09-12T08:28:04;6.03;;;5.30;;
78581;SDS011;67878;46.242;5.974;2023-09-12T08:30:30;5.80;;;5.07;;
78581;SDS011;67878;46.242;5.974;2023-09-12T08:32:56;5.57;;;5.07;;
78581;SDS011;67878;46.242;5.974;2023-09-12T08:35:21;5.55;;;5.05;;
78581;SDS011;67878;46.242;5.974;2023-09-12T08:37:47;6.07;;;5.47;;
78581;SDS011;67878;46.242;5.974;2023-09-12T08:40:13;5.03;;;4.63;;
78581;SDS011;67878;46.242;5.974;2023-09-12T08:42:40;5.88;;;5.28;;
78581;SDS011;67878;46.242;5.974;2023-09-12T08:45:08;5.38;;;4.88;;
78581;SDS011;67878;46.242;5.974;2023-09-12T08:47:39;5.45;;;4.95;;
78581;SDS011;67878;46.242;5.974;2023-09-12T08:50:06;5.75;;;5.25;;
78581;SDS011;67878;46.242;5.974;2023-09-12T08:52:35;5.22;;;4.72;;
78581;SDS011;67878;46.242;5.974;2023-09-12T08:55:01;5.40;;;4.90;;
78581;SDS011;67878;46.242;5.974;2023-09-12T08:57:26;5.28;;;4.78;;
78581;SDS011;67878;46.242;5.974;2023-09-12T08:59:52;5.75;;;5.10;;
78581;SDS011;67878;46.242;5.974;2023-09-12T09:02:20;5.93;;;5.32;;
78581;SDS011;67878;46.242;5.974;2023-09-12T09:04:46;5.15;;;4.65;;
78581;SDS011;67878;46.242;5.974;2023-09-12T09:07:15;5.38;;;4.88;;
78581;SDS011;67878;46.242;5.974;2023-09-12T09:09:43;4.95;;;4.43;;
78581;SDS011;67878;46.242;5.974;2023-09-12T09:12:09;5.10;;;4.60;;
78581;SDS011;67878;46.242;5.974;2023-09-12T09:14:36;5.15;;;4.63;;
78581;SDS011;67878;46.242;5.974;2023-09-12T09:17:02;5.25;;;4.75;;
78581;SDS011;67878;46.242;5.974;2023-09-12T09:19:40;5.82;;;4.55;;
78581;SDS011;67878;46.242;5.974;2023-09-12T09:22:07;5.15;;;4.55;;
78581;SDS011;67878;46.242;5.974;2023-09-12T09:24:32;6.07;;;4.97;;
78581;SDS011;67878;46.242;5.974;2023-09-12T09:26:58;7.20;;;4.90;;
78581;SDS011;67878;46.242;5.974;2023-09-12T09:29:25;8.70;;;4.65;;
78581;SDS011;67878;46.242;5.974;2023-09-12T09:31:51;6.75;;;5.03;;
78581;SDS011;67878;46.242;5.974;2023-09-12T09:34:18;5.50;;;4.95;;
78581;SDS011;67878;46.242;5.974;2023-09-12T09:36:48;5.35;;;4.85;;
78581;SDS011;67878;46.242;5.974;2023-09-12T09:39:19;5.95;;;4.63;;
78581;SDS011;67878;46.242;5.974;2023-09-12T09:41:49;5.20;;;4.70;;
78581;SDS011;67878;46.242;5.974;2023-09-12T09:44:15;5.97;;;4.80;;
78581;SDS011;67878;46.242;5.974;2023-09-12T09:46:45;5.00;;;4.47;;
78581;SDS011;67878;46.242;5.974;2023-09-12T09:49:14;4.65;;;4.25;;
78581;SDS011;67878;46.242;5.974;2023-09-12T09:51:41;6.63;;;4.85;;
78581;SDS011;67878;46.242;5.974;2023-09-12T09:54:08;5.07;;;4.57;;
78581;SDS011;67878;46.242;5.974;2023-09-12T09:56:37;4.95;;;4.50;;
78581;SDS011;67878;46.242;5.974;2023-09-12T09:59:16;4.93;;;4.43;;
78581;SDS011;67878;46.242;5.974;2023-09-12T10:01:44;5.70;;;4.22;;
78581;SDS011;67878;46.242;5.974;2023-09-12T10:04:10;5.03;;;4.57;;
78581;SDS011;67878;46.242;5.974;2023-09-12T10:06:36;5.40;;;4.90;;
78581;SDS011;67878;46.242;5.974;2023-09-12T10:09:05;5.72;;;4.47;;
78581;SDS011;67878;46.242;5.974;2023-09-12T10:11:35;4.85;;;4.35;;
78581;SDS011;67878;46.242;5.974;2023-09-12T10:14:03;4.65;;;4.25;;
78581;SDS011;67878;46.242;5.974;2023-09-12T10:16:30;4.93;;;4.40;;
78581;SDS011;67878;46.242;5.974;2023-09-12T10:18:58;5.30;;;4.53;;
78581;SDS011;67878;46.242;5.974;2023-09-12T10:21:36;5.85;;;4.43;;
78581;SDS011;67878;46.242;5.974;2023-09-12T10:24:03;6.05;;;4.82;;
78581;SDS011;67878;46.242;5.974;2023-09-12T10:26:31;6.05;;;4.93;;
78581;SDS011;67878;46.242;5.974;2023-09-12T10:28:56;5.15;;;4.22;;
78581;SDS011;67878;46.242;5.974;2023-09-12T10:31:22;5.30;;;4.45;;
78581;SDS011;67878;46.242;5.974;2023-09-12T10:33:50;5.07;;;4.43;;
78581;SDS011;67878;46.242;5.974;2023-09-12T10:36:17;4.97;;;4.07;;
78581;SDS011;67878;46.242;5.974;2023-09-12T10:38:44;7.53;;;4.20;;
78581;SDS011;67878;46.242;5.974;2023-09-12T10:41:13;5.20;;;4.47;;
78581;SDS011;67878;46.242;5.974;2023-09-12T10:43:40;7.32;;;3.90;;
78581;SDS011;67878;46.242;5.974;2023-09-12T10:46:07;5.07;;;3.95;;
78581;SDS011;67878;46.242;5.974;2023-09-12T10:48:34;4.07;;;3.65;;
78581;SDS011;67878;46.242;5.974;2023-09-12T10:51:04;5.22;;;4.18;;
78581;SDS011;67878;46.242;5.974;2023-09-12T10:53:32;4.95;;;4.45;;
78581;SDS011;67878;46.242;5.974;2023-09-12T10:56:01;5.07;;;4.40;;
78581;SDS011;67878;46.242;5.974;2023-09-12T10:58:32;6.28;;;4.60;;
78581;SDS011;67878;46.242;5.974;2023-09-12T11:03:50;4.72;;;4.13;;
78581;SDS011;67878;46.242;5.974;2023-09-12T11:06:29;4.15;;;3.75;;
78581;SDS011;67878;46.242;5.974;2023-09-12T11:11:39;4.65;;;3.67;;
78581;SDS011;67878;46.242;5.974;2023-09-12T11:14:07;3.97;;;3.58;;
78581;SDS011;67878;46.242;5.974;2023-09-12T11:16:34;4.22;;;3.83;;
78581;SDS011;67878;46.242;5.974;2023-09-12T11:21:53;4.75;;;3.70;;
78581;SDS011;67878;46.242;5.974;2023-09-12T11:24:29;4.30;;;3.80;;
78581;SDS011;67878;46.242;5.974;2023-09-12T11:27:13;4.03;;;3.70;;
78581;SDS011;67878;46.242;5.974;2023-09-12T11:29:45;4.63;;;3.95;;
78581;SDS011;67878;46.242;5.974;2023-09-12T11:32:30;5.18;;;4.03;;
78581;SDS011;67878;46.242;5.974;2023-09-12T11:35:07;3.78;;;3.42;;
78581;SDS011;67878;46.242;5.974;2023-09-12T11:37:37;6.50;;;4.30;;
78581;SDS011;67878;46.242;5.974;2023-09-12T11:42:40;5.05;;;4.18;;
78581;SDS011;67878;46.242;5.974;2023-09-12T11:45:17;4.97;;;4.00;;
78581;SDS011;67878;46.242;5.974;2023-09-12T11:47:47;7.30;;;3.60;;
78581;SDS011;67878;46.242;5.974;2023-09-12T11:50:32;4.15;;;3.67;;
78581;SDS011;67878;46.242;5.974;2023-09-12T11:55:37;4.43;;;3.78;;
78581;SDS011;67878;46.242;5.974;2023-09-12T11:58:13;6.88;;;3.90;;
78581;SDS011;67878;46.242;5.974;2023-09-12T12:00:46;4.20;;;3.80;;
78581;SDS011;67878;46.242;5.974;2023-09-12T12:03:14;4.13;;;3.72;;
78581;SDS011;67878;46.242;5.974;2023-09-12T12:05:40;4.25;;;3.70;;
78581;SDS011;67878;46.242;5.974;2023-09-12T12:08:09;5.07;;;3.80;;
78581;SDS011;67878;46.242;5.974;2023-09-12T12:10:36;4.20;;;3.80;;
78581;SDS011;67878;46.242;5.974;2023-09-12T12:13:04;4.28;;;3.80;;
78581;SDS011;67878;46.242;5.974;2023-09-12T12:15:29;4.88;;;3.80;;
78581;SDS011;67878;46.242;5.974;2023-09-12T12:17:55;4.07;;;3.40;;
78581;SDS011;67878;46.242;5.974;2023-09-12T12:20:21;4.10;;;3.65;;
78581;SDS011;67878;46.242;5.974;2023-09-12T12:22:47;3.97;;;3.58;;
78581;SDS011;67878;46.242;5.974;2023-09-12T12:25:13;4.25;;;3.85;;
78581;SDS011;67878;46.242;5.974;2023-09-12T12:27:41;5.30;;;3.60;;
78581;SDS011;67878;46.242;5.974;2023-09-12T12:30:10;3.90;;;3.22;;
78581;SDS011;67878;46.242;5.974;2023-09-12T12:32:41;3.75;;;3.35;;
78581;SDS011;67878;46.242;5.974;2023-09-12T12:35:07;3.80;;;3.40;;
78581;SDS011;67878;46.242;5.974;2023-09-12T12:37:35;3.78;;;3.30;;
78581;SDS011;67878;46.242;5.974;2023-09-12T12:40:01;3.90;;;3.45;;
78581;SDS011;67878;46.242;5.974;2023-09-12T12:42:35;4.25;;;3.47;;
78581;SDS011;67878;46.242;5.974;2023-09-12T12:45:13;3.78;;;3.47;;
78581;SDS011;67878;46.242;5.974;2023-09-12T12:47:42;4.30;;;3.90;;
78581;SDS011;67878;46.242;5.974;2023-09-12T12:50:12;4.28;;;3.47;;
78581;SDS011;67878;46.242;5.974;2023-09-12T12:52:39;3.92;;;3.58;;
78581;SDS011;67878;46.242;5.974;2023-09-12T12:55:09;5.20;;;3.58;;
78581;SDS011;67878;46.242;5.974;2023-09-12T12:57:37;4.15;;;3.53;;
78581;SDS011;67878;46.242;5.974;2023-09-12T13:00:04;3.65;;;3.35;;
78581;SDS011;67878;46.242;5.974;2023-09-12T13:02:31;4.13;;;3.72;;
78581;SDS011;67878;46.242;5.974;2023-09-12T13:04:57;3.65;;;3.35;;
78581;SDS011;67878;46.242;5.974;2023-09-12T13:07:22;4.00;;;3.25;;
78581;SDS011;67878;46.242;5.974;2023-09-12T13:09:48;4.50;;;3.53;;
78581;SDS011;67878;46.242;5.974;2023-09-12T13:12:14;3.97;;;3.58;;
78581;SDS011;67878;46.242;5.974;2023-09-12T13:14:40;3.60;;;3.25;;
78581;SDS011;67878;46.242;5.974;2023-09-12T13:17:06;3.97;;;3.30;;
78581;SDS011;67878;46.242;5.974;2023-09-12T13:19:31;4.00;;;3.38;;
78581;SDS011;67878;46.242;5.974;2023-09-12T13:21:57;4.60;;;3.60;;
78581;SDS011;67878;46.242;5.974;2023-09-12T13:24:22;3.53;;;3.22;;
78581;SDS011;67878;46.242;5.974;2023-09-12T13:26:48;4.43;;;3.42;;
78581;SDS011;67878;46.242;5.974;2023-09-12T13:29:14;4.05;;;3.65;;
78581;SDS011;67878;46.242;5.974;2023-09-12T13:31:39;4.35;;;3.30;;
78581;SDS011;67878;46.242;5.974;2023-09-12T13:34:04;4.40;;;3.30;;
78581;SDS011;67878;46.242;5.974;2023-09-12T13:36:30;4.78;;;3.25;;
78581;SDS011;67878;46.242;5.974;2023-09-12T13:38:55;6.13;;;2.95;;
78581;SDS011;67878;46.242;5.974;2023-09-12T13:41:21;3.28;;;2.97;;
78581;SDS011;67878;46.242;5.974;2023-09-12T13:43:48;3.95;;;3.28;;
78581;SDS011;67878;46.242;5.974;2023-09-12T13:46:13;4.50;;;3.25;;
78581;SDS011;67878;46.242;5.974;2023-09-12T13:48:39;4.13;;;3.60;;
78581;SDS011;67878;46.242;5.974;2023-09-12T13:51:05;3.40;;;3.10;;
78581;SDS011;67878;46.242;5.974;2023-09-12T13:53:31;3.63;;;3.05;;
78581;SDS011;67878;46.242;5.974;2023-09-12T13:55:56;3.70;;;3.25;;
78581;SDS011;67878;46.242;5.974;2023-09-12T13:58:23;3.72;;;3.17;;
78581;SDS011;67878;46.242;5.974;2023-09-12T14:00:49;3.53;;;3.15;;
78581;SDS011;67878;46.242;5.974;2023-09-12T14:03:14;3.33;;;3.03;;
78581;SDS011;67878;46.242;5.974;2023-09-12T14:05:40;3.60;;;3.30;;
78581;SDS011;67878;46.242;5.974;2023-09-12T14:08:06;3.58;;;3.17;;
78581;SDS011;67878;46.242;5.974;2023-09-12T14:10:31;3.22;;;2.92;;
78581;SDS011;67878;46.242;5.974;2023-09-12T14:12:56;3.47;;;3.10;;
78581;SDS011;67878;46.242;5.974;2023-09-12T14:15:22;3.10;;;2.83;;
78581;SDS011;67878;46.242;5.974;2023-09-12T14:17:48;3.35;;;3.05;;
78581;SDS011;67878;46.242;5.974;2023-09-12T14:20:13;3.53;;;3.10;;
78581;SDS011;67878;46.242;5.974;2023-09-12T14:22:40;3.60;;;2.88;;
78581;SDS011;67878;46.242;5.974;2023-09-12T14:25:07;3.15;;;2.85;;
78581;SDS011;67878;46.242;5.974;2023-09-12T14:27:33;3.40;;;2.95;;
78581;SDS011;67878;46.242;5.974;2023-09-12T14:29:59;3.47;;;3.17;;
78581;SDS011;67878;46.242;5.974;2023-09-12T14:32:25;3.15;;;2.85;;
78581;SDS011;67878;46.242;5.974;2023-09-12T14:34:50;3.30;;;2.95;;
78581;SDS011;67878;46.242;5.974;2023-09-12T14:37:16;4.35;;;3.10;;
78581;SDS011;67878;46.242;5.974;2023-09-12T14:39:41;5.68;;;3.05;;
78581;SDS011;67878;46.242;5.974;2023-09-12T14:42:07;4.47;;;2.92;;
78581;SDS011;67878;46.242;5.974;2023-09-12T14:44:34;3.45;;;3.00;;
78581;SDS011;67878;46.242;5.974;2023-09-12T14:47:00;3.20;;;2.80;;
78581;SDS011;67878;46.242;5.974;2023-09-12T14:49:25;3.50;;;3.03;;
78581;SDS011;67878;46.242;5.974;2023-09-12T14:51:51;3.22;;;2.92;;
78581;SDS011;67878;46.242;5.974;2023-09-12T14:54:16;3.10;;;2.70;;
78581;SDS011;67878;46.242;5.974;2023-09-12T14:56:41;4.38;;;2.83;;
78581;SDS011;67878;46.242;5.974;2023-09-12T14:59:07;3.22;;;2.60;;
78581;SDS011;67878;46.242;5.974;2023-09-12T15:01:34;3.83;;;3.15;;
78581;SDS011;67878;46.242;5.974;2023-09-12T15:04:03;2.53;;;2.33;;